createdAt,value
2022-12-31T00:01:17.344Z,96.94
2022-12-31T00:02:49.102Z,97.23
2022-12-31T00:04:20.892Z,96.59
2022-12-31T00:05:52.530Z,97.29
2022-12-31T00:07:24.218Z,97.69
2022-12-31T00:08:56.806Z,97.54
2022-12-31T00:10:28.584Z,97.67
2022-12-31T00:12:00.241Z,97.74
2022-12-31T00:13:31.915Z,97.44
2022-12-31T00:15:03.851Z,97.92
2022-12-31T00:16:37.977Z,97.07
2022-12-31T00:18:10.107Z,97.30
2022-12-31T00:19:41.796Z,97.10
2022-12-31T00:21:13.891Z,97.05
2022-12-31T00:22:45.540Z,97.05
2022-12-31T00:24:17.156Z,96.92
2022-12-31T00:25:48.769Z,97.09
2022-12-31T00:27:22.325Z,96.93
2022-12-31T00:28:54.493Z,96.77
2022-12-31T00:30:26.097Z,96.80
2022-12-31T00:31:59.074Z,96.80
2022-12-31T00:33:30.675Z,96.68
2022-12-31T00:35:02.307Z,96.72
2022-12-31T00:36:34.797Z,96.72
2022-12-31T00:38:06.445Z,96.51
2022-12-31T00:39:38.051Z,95.84
2022-12-31T00:41:09.813Z,95.88
2022-12-31T00:42:41.397Z,96.25
2022-12-31T00:44:13.090Z,96.35
2022-12-31T00:45:44.780Z,95.80
2022-12-31T00:47:17.854Z,96.52
2022-12-31T00:48:49.460Z,96.38
2022-12-31T00:50:21.121Z,96.44
2022-12-31T00:51:52.731Z,97.38
2022-12-31T00:53:24.757Z,97.38
2022-12-31T00:54:57.859Z,97.70
2022-12-31T00:56:32.042Z,97.55
2022-12-31T00:58:03.787Z,97.20
2022-12-31T00:59:35.489Z,97.34
2022-12-31T01:01:10.576Z,96.81
2022-12-31T01:02:43.847Z,96.36
2022-12-31T01:04:17.223Z,97.27
2022-12-31T01:05:50.303Z,96.88
2022-12-31T01:07:21.956Z,97.46
2022-12-31T01:08:55.191Z,97.92
2022-12-31T01:10:45.373Z,98.81
2022-12-31T01:12:17.012Z,97.52
2022-12-31T01:13:49.792Z,97.79
2022-12-31T01:15:21.385Z,97.88
2022-12-31T01:16:53.398Z,97.37
2022-12-31T01:18:26.368Z,97.63
2022-12-31T01:19:57.979Z,98.26
2022-12-31T01:21:29.719Z,98.00
2022-12-31T01:23:01.341Z,97.58
2022-12-31T01:24:32.975Z,97.36
2022-12-31T01:26:06.023Z,97.99
2022-12-31T01:27:37.682Z,98.45
2022-12-31T01:29:09.559Z,98.20
2022-12-31T01:30:41.278Z,98.07
2022-12-31T01:32:13.148Z,97.85
2022-12-31T01:33:46.234Z,97.42
2022-12-31T01:35:17.933Z,97.49
2022-12-31T01:36:49.924Z,97.88
2022-12-31T01:38:21.515Z,97.73
2022-12-31T01:39:53.164Z,98.61
2022-12-31T01:41:26.531Z,98.31
2022-12-31T01:42:58.223Z,98.57
2022-12-31T01:44:50.391Z,98.38
2022-12-31T01:46:26.341Z,98.57
2022-12-31T01:47:58.228Z,98.10
2022-12-31T01:49:33.318Z,97.75
2022-12-31T01:51:05.233Z,98.54
2022-12-31T01:52:37.869Z,98.99
2022-12-31T01:54:09.600Z,98.58
2022-12-31T01:55:44.463Z,98.66
2022-12-31T01:57:16.063Z,98.67
2022-12-31T01:58:48.395Z,98.55
2022-12-31T02:00:20.134Z,98.52
2022-12-31T02:01:54.749Z,97.99
2022-12-31T02:03:27.091Z,98.26
2022-12-31T02:05:00.446Z,97.57
2022-12-31T02:06:34.500Z,97.06
2022-12-31T02:08:06.227Z,97.88
2022-12-31T02:09:40.069Z,97.91
2022-12-31T02:11:25.937Z,98.06
2022-12-31T02:12:57.614Z,98.38
2022-12-31T02:14:30.720Z,98.29
2022-12-31T02:16:05.210Z,97.92
2022-12-31T02:17:39.077Z,97.19
2022-12-31T02:19:35.652Z,98.54
2022-12-31T02:21:19.135Z,98.77
2022-12-31T02:23:02.677Z,98.54
2022-12-31T02:24:52.943Z,98.24
2022-12-31T02:26:42.433Z,98.54
2022-12-31T02:28:20.442Z,98.27
2022-12-31T02:30:11.435Z,97.49
2022-12-31T02:31:44.117Z,97.14
2022-12-31T02:33:18.330Z,95.34
2022-12-31T02:34:51.803Z,95.37
2022-12-31T02:36:24.852Z,95.99
2022-12-31T02:37:59.120Z,96.19
2022-12-31T02:39:30.800Z,96.88
2022-12-31T02:41:02.549Z,97.63
2022-12-31T02:42:34.170Z,97.89
2022-12-31T02:44:20.800Z,96.96
2022-12-31T02:45:57.696Z,96.93
2022-12-31T02:47:36.734Z,96.36
2022-12-31T02:49:10.867Z,96.64
2022-12-31T02:50:55.378Z,97.33
2022-12-31T02:52:29.358Z,96.13
2022-12-31T02:54:11.856Z,96.85
2022-12-31T02:55:46.138Z,95.77
2022-12-31T02:57:20.418Z,95.64
2022-12-31T02:59:15.825Z,96.35
2022-12-31T03:01:08.212Z,94.86
2022-12-31T03:02:42.133Z,93.17
2022-12-31T03:04:32.184Z,92.83
2022-12-31T03:06:04.086Z,93.98
2022-12-31T03:07:35.866Z,93.92
2022-12-31T03:09:13.535Z,93.16
2022-12-31T03:10:45.167Z,93.01
2022-12-31T03:12:35.361Z,92.00
2022-12-31T03:14:07.107Z,91.49
2022-12-31T03:15:39.056Z,91.28
2022-12-31T03:17:10.775Z,90.70
2022-12-31T03:19:02.316Z,91.93
2022-12-31T03:20:53.508Z,92.04
2022-12-31T03:22:28.159Z,91.54
2022-12-31T03:24:18.240Z,91.22
2022-12-31T03:25:49.930Z,91.39
2022-12-31T03:27:21.504Z,91.28
2022-12-31T03:28:53.085Z,91.27
2022-12-31T03:30:24.968Z,89.64
2022-12-31T03:31:56.595Z,90.59
2022-12-31T03:33:30.257Z,91.32
2022-12-31T03:35:03.355Z,91.66
2022-12-31T03:36:35.104Z,91.41
2022-12-31T03:38:07.030Z,91.24
2022-12-31T03:39:38.733Z,90.93
2022-12-31T03:41:10.445Z,90.57
2022-12-31T03:42:42.297Z,91.14
2022-12-31T03:44:13.905Z,89.70
2022-12-31T03:45:45.569Z,89.94
2022-12-31T03:47:17.161Z,90.03
2022-12-31T03:48:48.765Z,88.06
2022-12-31T03:50:24.376Z,89.15
2022-12-31T03:51:56.053Z,90.51
2022-12-31T03:53:27.660Z,91.26
2022-12-31T03:54:59.264Z,91.05
2022-12-31T03:56:30.845Z,91.33
2022-12-31T03:58:02.508Z,91.59
2022-12-31T03:59:34.164Z,92.28
2022-12-31T04:01:06.003Z,91.53
2022-12-31T04:02:38.019Z,92.16
2022-12-31T04:04:09.661Z,92.06
2022-12-31T04:05:42.650Z,91.98
2022-12-31T04:07:14.292Z,92.81
2022-12-31T04:08:46.027Z,92.60
2022-12-31T04:10:17.742Z,93.59
2022-12-31T04:11:49.322Z,92.38
2022-12-31T04:13:20.903Z,91.13
2022-12-31T04:14:52.542Z,91.38
2022-12-31T04:16:24.283Z,89.45
2022-12-31T04:17:55.987Z,90.04
2022-12-31T04:19:27.606Z,89.59
2022-12-31T04:21:02.753Z,89.81
2022-12-31T04:22:34.392Z,89.61
2022-12-31T04:24:07.017Z,88.60
2022-12-31T04:25:38.602Z,87.81
2022-12-31T04:27:10.241Z,87.88
2022-12-31T04:28:41.835Z,86.18
2022-12-31T04:30:13.855Z,87.14
2022-12-31T04:31:45.648Z,85.79
2022-12-31T04:33:17.273Z,87.28
2022-12-31T04:34:48.894Z,86.63
2022-12-31T04:36:21.931Z,86.82
2022-12-31T04:37:53.645Z,85.71
2022-12-31T04:39:25.390Z,87.23
2022-12-31T04:41:15.649Z,87.54
2022-12-31T04:42:47.294Z,85.19
2022-12-31T04:44:19.231Z,84.68
2022-12-31T04:45:50.845Z,84.09
2022-12-31T04:47:23.986Z,83.48
2022-12-31T04:48:55.824Z,83.51
2022-12-31T04:50:27.486Z,84.33
2022-12-31T04:52:00.441Z,83.20
2022-12-31T04:53:32.035Z,83.96
2022-12-31T04:55:04.034Z,83.80
2022-12-31T04:56:36.717Z,84.74
2022-12-31T04:58:08.403Z,85.59
2022-12-31T04:59:40.029Z,86.03
2022-12-31T05:01:12.032Z,84.05
2022-12-31T05:02:43.878Z,85.33
2022-12-31T05:04:15.659Z,85.62
2022-12-31T05:05:47.451Z,87.41
2022-12-31T05:07:20.432Z,88.26
2022-12-31T05:08:52.046Z,88.44
2022-12-31T05:10:23.702Z,88.81
2022-12-31T05:11:55.362Z,89.14
2022-12-31T05:13:32.911Z,89.78
2022-12-31T05:15:06.353Z,90.14
2022-12-31T05:16:38.039Z,89.68
2022-12-31T05:18:09.685Z,89.86
2022-12-31T05:19:41.330Z,90.01
2022-12-31T05:21:14.970Z,90.75
2022-12-31T05:22:47.951Z,90.66
2022-12-31T05:24:19.600Z,89.58
2022-12-31T05:25:51.609Z,90.31
2022-12-31T05:27:23.248Z,90.63
2022-12-31T05:28:56.434Z,89.95
2022-12-31T05:30:28.184Z,90.00
2022-12-31T05:31:59.848Z,90.90
2022-12-31T05:33:31.556Z,91.36
2022-12-31T05:35:03.412Z,89.88
2022-12-31T05:36:35.063Z,90.90
2022-12-31T05:38:08.094Z,90.36
2022-12-31T05:39:39.726Z,90.73
2022-12-31T05:41:11.547Z,90.79
2022-12-31T05:42:43.590Z,91.64
2022-12-31T05:44:16.462Z,90.69
2022-12-31T05:45:48.085Z,91.54
2022-12-31T05:47:19.738Z,91.53
2022-12-31T05:48:51.342Z,91.51
2022-12-31T05:50:23.015Z,91.81
2022-12-31T05:51:54.645Z,92.21
2022-12-31T05:53:27.639Z,91.61
2022-12-31T05:54:59.223Z,92.32
2022-12-31T05:56:30.811Z,92.36
2022-12-31T05:58:02.560Z,92.39
2022-12-31T05:59:34.264Z,92.43
2022-12-31T06:01:05.871Z,92.47
2022-12-31T06:02:37.619Z,93.08
2022-12-31T06:04:09.296Z,92.22
2022-12-31T06:05:41.430Z,92.24
2022-12-31T06:07:13.135Z,92.13
2022-12-31T06:08:48.927Z,92.63
2022-12-31T06:10:20.724Z,92.63
2022-12-31T06:11:52.371Z,92.19
2022-12-31T06:13:24.116Z,92.63
2022-12-31T06:14:55.808Z,93.50
2022-12-31T06:16:30.593Z,92.79
2022-12-31T06:18:02.180Z,93.04
2022-12-31T06:19:33.874Z,92.75
2022-12-31T06:21:05.882Z,92.61
2022-12-31T06:22:37.531Z,92.81
2022-12-31T06:24:10.549Z,92.16
2022-12-31T06:25:42.253Z,92.95
2022-12-31T06:27:13.861Z,92.26
2022-12-31T06:28:45.437Z,92.00
2022-12-31T06:30:17.297Z,91.22
2022-12-31T06:31:48.974Z,91.62
2022-12-31T06:33:20.653Z,92.02
2022-12-31T06:34:52.313Z,91.71
2022-12-31T06:36:23.982Z,91.52
2022-12-31T06:37:55.680Z,91.76
2022-12-31T06:39:28.720Z,91.33
2022-12-31T06:41:03.027Z,91.51
2022-12-31T06:42:34.613Z,91.62
2022-12-31T06:44:06.405Z,92.02
2022-12-31T06:45:39.510Z,92.50
2022-12-31T06:47:11.162Z,91.95
2022-12-31T06:48:44.629Z,92.73
2022-12-31T06:50:16.360Z,92.81
2022-12-31T06:51:48.041Z,92.75
2022-12-31T06:53:19.671Z,92.32
2022-12-31T06:54:53.236Z,92.52
2022-12-31T06:56:33.144Z,93.03
2022-12-31T06:58:06.284Z,93.09
2022-12-31T06:59:38.346Z,92.98
2022-12-31T07:01:20.249Z,92.57
2022-12-31T07:03:07.865Z,92.83
2022-12-31T07:05:12.202Z,93.20
2022-12-31T07:06:44.301Z,93.40
2022-12-31T07:08:26.512Z,93.41
2022-12-31T07:10:02.814Z,93.43
2022-12-31T07:11:37.073Z,93.38
2022-12-31T07:13:20.639Z,93.69
2022-12-31T07:14:54.848Z,92.61
2022-12-31T07:16:37.126Z,92.39
2022-12-31T07:18:15.006Z,93.02
2022-12-31T07:19:55.439Z,92.48
2022-12-31T07:21:31.981Z,93.17
2022-12-31T07:23:04.025Z,93.50
2022-12-31T07:24:36.273Z,93.01
2022-12-31T07:26:14.421Z,92.96
2022-12-31T07:27:56.637Z,93.02
2022-12-31T07:29:31.628Z,93.42
2022-12-31T07:31:05.852Z,93.75
2022-12-31T07:33:05.743Z,94.31
2022-12-31T07:34:39.837Z,94.05
2022-12-31T07:36:16.709Z,93.52
2022-12-31T07:37:51.992Z,93.23
2022-12-31T07:39:28.621Z,92.55
2022-12-31T07:41:09.387Z,92.19
2022-12-31T07:42:45.869Z,91.60
2022-12-31T07:44:26.718Z,92.41
2022-12-31T07:46:00.820Z,91.65
2022-12-31T07:47:32.961Z,92.17
2022-12-31T07:49:05.085Z,92.79
2022-12-31T07:50:37.246Z,92.34
2022-12-31T07:52:09.841Z,92.63
2022-12-31T07:53:41.451Z,92.60
2022-12-31T07:55:13.259Z,92.74
2022-12-31T07:56:44.856Z,92.99
2022-12-31T07:58:22.132Z,93.01
2022-12-31T08:00:02.275Z,93.28
2022-12-31T08:01:38.583Z,93.96
2022-12-31T08:03:14.499Z,92.89
2022-12-31T08:04:49.118Z,93.13
2022-12-31T08:06:24.992Z,93.50
2022-12-31T08:07:58.466Z,93.80
2022-12-31T08:09:37.296Z,93.60
2022-12-31T08:11:12.639Z,93.41
2022-12-31T08:12:44.259Z,93.20
2022-12-31T08:14:17.421Z,93.44
2022-12-31T08:15:49.569Z,92.86
2022-12-31T08:17:21.671Z,92.94
2022-12-31T08:18:53.923Z,93.22
2022-12-31T08:20:25.650Z,94.12
2022-12-31T08:22:10.354Z,94.01
2022-12-31T08:23:44.436Z,93.82
2022-12-31T08:25:19.131Z,93.86
2022-12-31T08:26:55.796Z,93.38
2022-12-31T08:28:32.252Z,93.94
2022-12-31T08:30:09.272Z,93.90
2022-12-31T08:31:45.195Z,93.79
2022-12-31T08:33:19.495Z,94.06
2022-12-31T08:34:57.565Z,93.28
2022-12-31T08:36:33.026Z,93.63
2022-12-31T08:38:17.476Z,93.75
2022-12-31T08:39:56.255Z,94.04
2022-12-31T08:41:30.224Z,93.91
2022-12-31T08:43:08.098Z,94.52
2022-12-31T08:44:41.670Z,94.35
2022-12-31T08:46:17.682Z,93.23
2022-12-31T08:47:56.459Z,92.97
2022-12-31T08:49:32.246Z,93.37
2022-12-31T08:51:04.424Z,93.61
2022-12-31T08:52:36.708Z,93.73
2022-12-31T08:54:10.500Z,94.06
2022-12-31T08:55:42.230Z,94.11
2022-12-31T08:57:16.696Z,94.21
2022-12-31T08:58:52.361Z,93.74
2022-12-31T09:00:24.569Z,94.43
2022-12-31T09:02:08.380Z,93.89
2022-12-31T09:03:50.416Z,93.49
2022-12-31T09:05:23.652Z,93.02
2022-12-31T09:06:57.071Z,92.85
2022-12-31T09:08:31.634Z,92.82
2022-12-31T09:10:07.851Z,93.18
2022-12-31T09:11:48.215Z,92.56
2022-12-31T09:13:23.788Z,91.79
2022-12-31T09:14:57.137Z,92.06
2022-12-31T09:16:32.182Z,91.10
2022-12-31T09:18:07.180Z,90.28
2022-12-31T09:19:38.869Z,91.20
2022-12-31T09:21:11.177Z,91.21
2022-12-31T09:22:43.013Z,91.03
2022-12-31T09:24:18.031Z,91.32
2022-12-31T09:25:59.493Z,91.71
2022-12-31T09:27:35.913Z,90.67
2022-12-31T09:29:10.517Z,90.73
2022-12-31T09:30:45.760Z,89.07
2022-12-31T09:32:22.629Z,88.50
2022-12-31T09:33:57.636Z,89.61
2022-12-31T09:35:34.339Z,89.34
2022-12-31T09:37:09.046Z,87.46
2022-12-31T09:38:43.932Z,87.02
2022-12-31T09:40:46.590Z,86.08
2022-12-31T09:42:51.782Z,85.34
2022-12-31T09:44:52.954Z,85.38
2022-12-31T09:46:37.587Z,85.83
2022-12-31T09:48:37.522Z,84.99
2022-12-31T09:50:33.498Z,81.57
2022-12-31T09:52:08.379Z,80.68
2022-12-31T09:53:48.710Z,83.36
2022-12-31T09:55:30.629Z,82.90
2022-12-31T09:57:26.853Z,83.23
2022-12-31T09:59:01.910Z,82.47
2022-12-31T10:00:37.608Z,82.34
2022-12-31T10:02:18.720Z,82.18
2022-12-31T10:04:25.664Z,79.84
2022-12-31T10:06:06.893Z,82.37
2022-12-31T10:07:52.028Z,81.08
2022-12-31T10:09:32.508Z,80.77
2022-12-31T10:11:05.853Z,83.33
2022-12-31T10:12:54.993Z,83.14
2022-12-31T10:14:35.717Z,80.92
2022-12-31T10:16:30.768Z,80.37
2022-12-31T10:18:06.361Z,78.68
2022-12-31T10:19:45.998Z,79.67
2022-12-31T10:21:26.778Z,81.04
2022-12-31T10:23:07.864Z,80.74
2022-12-31T10:24:49.389Z,80.83
2022-12-31T10:26:41.577Z,82.00
2022-12-31T10:28:23.357Z,82.00
2022-12-31T10:29:58.332Z,82.08
2022-12-31T10:31:39.293Z,82.17
2022-12-31T10:33:16.722Z,82.53
2022-12-31T10:34:54.734Z,83.86
2022-12-31T10:36:30.185Z,82.44
2022-12-31T10:38:06.870Z,79.21
2022-12-31T10:39:44.536Z,80.88
2022-12-31T10:41:50.379Z,80.24
2022-12-31T10:43:54.640Z,80.65
2022-12-31T10:46:05.109Z,79.90
2022-12-31T10:48:09.060Z,80.70
2022-12-31T10:49:59.813Z,81.11
2022-12-31T10:52:10.109Z,80.59
2022-12-31T10:54:23.383Z,80.48
2022-12-31T10:56:19.906Z,77.81
2022-12-31T10:58:35.580Z,78.09
2022-12-31T11:00:17.441Z,78.85
2022-12-31T11:01:52.375Z,79.84
2022-12-31T11:04:04.987Z,80.21
2022-12-31T11:06:11.467Z,77.36
2022-12-31T11:08:00.551Z,78.51
2022-12-31T11:09:45.254Z,78.76
2022-12-31T11:11:22.367Z,79.71
2022-12-31T11:13:22.655Z,78.75
2022-12-31T11:15:13.733Z,80.63
2022-12-31T11:16:51.831Z,78.29
2022-12-31T11:18:27.425Z,76.84
2022-12-31T11:20:07.175Z,77.89
2022-12-31T11:21:48.194Z,80.22
2022-12-31T11:23:37.574Z,81.81
2022-12-31T11:25:34.592Z,80.62
2022-12-31T11:27:16.060Z,79.68
2022-12-31T11:29:03.875Z,79.53
2022-12-31T11:30:38.275Z,78.53
2022-12-31T11:32:22.684Z,78.22
2022-12-31T11:34:04.010Z,80.18
2022-12-31T11:35:55.601Z,78.25
2022-12-31T11:37:33.749Z,76.23
2022-12-31T11:39:30.781Z,74.87
2022-12-31T11:41:04.828Z,77.03
2022-12-31T11:42:41.631Z,77.77
2022-12-31T11:44:18.116Z,77.41
2022-12-31T11:46:01.764Z,75.67
2022-12-31T11:48:04.244Z,77.52
2022-12-31T11:49:43.313Z,76.09
2022-12-31T11:51:36.842Z,74.88
2022-12-31T11:53:23.926Z,75.74
2022-12-31T11:55:05.067Z,77.25
2022-12-31T11:56:37.891Z,74.98
2022-12-31T11:58:13.726Z,74.07
2022-12-31T11:59:45.421Z,75.43
2022-12-31T12:01:19.144Z,73.44
2022-12-31T12:02:51.449Z,72.26
2022-12-31T12:04:25.223Z,72.92
2022-12-31T12:05:57.003Z,71.76
2022-12-31T12:07:28.878Z,71.60
2022-12-31T12:09:05.983Z,72.28
2022-12-31T12:10:42.243Z,71.60
2022-12-31T12:12:13.965Z,71.67
2022-12-31T12:13:45.821Z,72.12
2022-12-31T12:15:19.042Z,71.68
2022-12-31T12:16:55.812Z,73.53
2022-12-31T12:18:37.007Z,72.57
2022-12-31T12:20:16.155Z,70.53
2022-12-31T12:21:50.000Z,72.83
2022-12-31T12:23:27.272Z,74.71
2022-12-31T12:25:04.969Z,73.76
2022-12-31T12:26:42.329Z,75.45
2022-12-31T12:28:19.332Z,75.73
2022-12-31T12:29:51.032Z,76.86
2022-12-31T12:31:23.568Z,77.17
2022-12-31T12:33:04.727Z,77.76
2022-12-31T12:34:37.908Z,78.22
2022-12-31T12:36:10.426Z,78.73
2022-12-31T12:37:47.266Z,77.91
2022-12-31T12:39:21.134Z,77.65
2022-12-31T12:40:54.438Z,76.15
2022-12-31T12:42:27.670Z,77.34
2022-12-31T12:45:55.968Z,77.74
2022-12-31T12:47:28.225Z,77.17
2022-12-31T12:48:59.991Z,77.78
2022-12-31T12:50:41.265Z,78.97
2022-12-31T12:52:33.901Z,78.77
2022-12-31T12:54:17.574Z,80.22
2022-12-31T12:56:04.789Z,80.71
2022-12-31T12:57:51.461Z,79.87
2022-12-31T12:59:43.112Z,78.54
2022-12-31T13:01:28.098Z,78.52
2022-12-31T13:03:25.093Z,78.77
2022-12-31T13:05:06.987Z,78.88
2022-12-31T13:06:48.447Z,79.31
2022-12-31T13:08:39.999Z,80.71
2022-12-31T13:10:45.423Z,79.68
2022-12-31T13:13:37.491Z,80.68
2022-12-31T13:26:10.750Z,80.00
2022-12-31T13:29:03.139Z,79.08
2022-12-31T13:30:50.729Z,79.42
2022-12-31T13:32:31.966Z,80.71
2022-12-31T13:34:39.560Z,80.85
2022-12-31T13:36:42.014Z,80.33
2022-12-31T13:38:31.667Z,80.05
2022-12-31T13:43:15.207Z,79.09
2022-12-31T13:45:53.631Z,81.18
2022-12-31T13:47:47.582Z,81.81
2022-12-31T13:51:27.087Z,81.23
2022-12-31T13:53:15.517Z,81.14
2022-12-31T13:55:04.651Z,80.99
2022-12-31T13:56:55.120Z,80.73
2022-12-31T13:58:31.925Z,79.99
2022-12-31T14:00:19.385Z,81.14
2022-12-31T14:01:52.808Z,79.20
2022-12-31T14:03:39.789Z,78.65
2022-12-31T14:05:25.849Z,78.33
2022-12-31T14:07:29.186Z,77.39
2022-12-31T14:09:11.228Z,78.82
2022-12-31T14:13:35.996Z,79.97
2022-12-31T14:15:11.654Z,81.15
2022-12-31T14:16:54.612Z,81.30
2022-12-31T14:18:35.224Z,81.84
2022-12-31T14:20:14.457Z,81.39
2022-12-31T14:21:47.642Z,82.60
2022-12-31T14:23:22.398Z,80.02
2022-12-31T14:25:21.760Z,81.94
2022-12-31T14:26:58.279Z,81.72
2022-12-31T14:28:50.691Z,82.09
2022-12-31T14:34:05.560Z,81.35
2022-12-31T14:40:51.360Z,83.60
2022-12-31T14:42:30.437Z,83.27
2022-12-31T14:45:03.174Z,82.83
2022-12-31T14:46:23.175Z,84.41
2022-12-31T14:47:56.909Z,84.11
2022-12-31T14:49:41.672Z,83.32
2022-12-31T14:51:25.731Z,84.40
2022-12-31T14:53:14.704Z,84.13
2022-12-31T14:54:55.655Z,85.05
2022-12-31T14:56:43.518Z,85.27
2022-12-31T14:58:40.276Z,85.67
2022-12-31T15:00:36.767Z,86.37
2022-12-31T15:02:37.220Z,85.22
2022-12-31T15:04:16.312Z,85.66
2022-12-31T15:06:00.229Z,86.82
2022-12-31T15:07:43.990Z,87.14
2022-12-31T15:09:59.948Z,87.07
2022-12-31T15:12:07.017Z,87.25
2022-12-31T15:14:18.019Z,87.96
2022-12-31T15:16:12.292Z,87.25
2022-12-31T15:18:12.451Z,87.88
2022-12-31T15:19:59.176Z,88.49
2022-12-31T15:21:41.004Z,87.77
2022-12-31T15:23:30.595Z,87.99
2022-12-31T15:25:28.518Z,87.79
2022-12-31T15:27:05.910Z,88.47
2022-12-31T15:28:56.597Z,89.16
2022-12-31T15:30:43.131Z,88.24
2022-12-31T15:32:24.740Z,88.74
2022-12-31T15:34:11.264Z,89.05
2022-12-31T15:35:53.089Z,88.71
2022-12-31T15:37:36.706Z,88.91
2022-12-31T15:39:39.554Z,88.90
2022-12-31T15:41:37.184Z,88.90
2022-12-31T15:43:14.711Z,89.13
2022-12-31T15:44:56.675Z,89.67
2022-12-31T15:46:30.992Z,89.04
2022-12-31T15:48:09.148Z,88.63
2022-12-31T15:49:47.772Z,88.73
2022-12-31T15:51:35.155Z,88.34
2022-12-31T15:53:20.783Z,89.91
2022-12-31T15:55:09.924Z,89.18
2022-12-31T15:56:50.540Z,89.21
2022-12-31T15:58:32.245Z,89.36
2022-12-31T16:00:11.439Z,88.27
2022-12-31T16:01:51.395Z,88.15
2022-12-31T16:03:36.117Z,89.69
2022-12-31T16:07:07.081Z,89.36
2022-12-31T16:08:55.696Z,88.51
2022-12-31T16:10:43.959Z,87.54
2022-12-31T16:13:08.687Z,84.78
2022-12-31T16:15:03.038Z,84.80
2022-12-31T16:16:46.261Z,84.41
2022-12-31T16:18:23.442Z,83.70
2022-12-31T16:20:01.729Z,84.58
2022-12-31T16:21:43.675Z,83.71
2022-12-31T16:23:25.533Z,86.91
2022-12-31T16:25:29.580Z,86.34
2022-12-31T16:27:07.871Z,85.88
2022-12-31T16:28:52.307Z,86.44
2022-12-31T16:30:39.738Z,87.99
2022-12-31T16:32:14.903Z,86.58
2022-12-31T16:34:05.181Z,85.78
2022-12-31T16:36:02.527Z,86.97
2022-12-31T16:44:33.473Z,83.91
2022-12-31T16:46:10.267Z,82.87
2022-12-31T16:47:43.287Z,84.50
2022-12-31T16:49:16.944Z,86.21
2022-12-31T16:50:50.668Z,87.27
2022-12-31T16:52:27.925Z,85.38
2022-12-31T16:53:59.865Z,87.43
2022-12-31T16:55:31.787Z,86.59
2022-12-31T16:57:04.748Z,87.07
2022-12-31T16:58:39.868Z,86.34
2022-12-31T17:00:15.831Z,88.11
2022-12-31T17:01:47.907Z,84.64
2022-12-31T17:03:20.671Z,86.00
2022-12-31T17:04:56.107Z,87.18
2022-12-31T17:06:28.553Z,87.38
2022-12-31T17:08:00.993Z,86.41
2022-12-31T17:09:34.290Z,87.73
2022-12-31T17:11:06.062Z,86.98
2022-12-31T17:13:17.399Z,87.68
2022-12-31T17:14:35.296Z,87.71
2022-12-31T17:16:07.234Z,87.89
2022-12-31T17:17:38.921Z,88.73
2022-12-31T17:19:19.502Z,88.21
2022-12-31T17:20:51.568Z,87.85
2022-12-31T17:22:32.807Z,87.77
2022-12-31T17:24:08.131Z,87.79
2022-12-31T17:25:39.840Z,88.49
2022-12-31T17:27:11.492Z,87.18
2022-12-31T17:28:44.830Z,88.11
2022-12-31T17:30:22.335Z,86.87
2022-12-31T17:32:00.692Z,87.03
2022-12-31T17:33:32.420Z,87.81
2022-12-31T17:35:26.501Z,87.67
2022-12-31T17:37:04.031Z,88.42
2022-12-31T17:38:35.903Z,88.62
2022-12-31T17:40:51.918Z,87.34
2022-12-31T17:42:28.180Z,88.24
2022-12-31T17:43:59.856Z,88.87
2022-12-31T17:45:35.860Z,88.22
2022-12-31T17:47:08.423Z,88.92
2022-12-31T17:48:40.135Z,88.78
2022-12-31T17:50:19.252Z,89.83
2022-12-31T17:51:50.918Z,88.66
2022-12-31T17:53:22.688Z,88.50
2022-12-31T17:54:54.399Z,88.95
2022-12-31T17:56:26.133Z,88.79
2022-12-31T17:57:57.905Z,88.79
2022-12-31T17:59:30.539Z,89.00
2022-12-31T18:01:05.360Z,89.10
2022-12-31T18:02:37.176Z,88.70
2022-12-31T18:04:11.185Z,88.71
2022-12-31T18:05:42.858Z,87.75
2022-12-31T18:07:14.674Z,87.65
2022-12-31T18:08:46.370Z,88.54
2022-12-31T18:10:19.312Z,88.79
2022-12-31T18:11:52.559Z,88.90
2022-12-31T18:13:27.222Z,89.90
2022-12-31T18:14:58.887Z,89.47
2022-12-31T18:16:31.993Z,89.42
2022-12-31T18:18:09.608Z,89.81
2022-12-31T18:20:06.715Z,89.34
2022-12-31T18:21:34.573Z,89.25
2022-12-31T18:23:06.295Z,88.77
2022-12-31T18:24:37.976Z,88.83
2022-12-31T18:26:09.804Z,89.63
2022-12-31T18:27:42.066Z,89.12
2022-12-31T18:29:15.284Z,89.58
2022-12-31T18:30:49.186Z,89.51
2022-12-31T18:32:23.351Z,89.11
2022-12-31T18:33:55.552Z,89.86
2022-12-31T18:35:58.166Z,90.05
2022-12-31T18:37:21.998Z,90.14
2022-12-31T18:38:54.071Z,89.60
2022-12-31T18:40:25.737Z,89.88
2022-12-31T18:41:57.422Z,89.35
2022-12-31T18:43:29.099Z,89.89
2022-12-31T18:45:00.753Z,89.88
2022-12-31T18:46:32.362Z,89.23
2022-12-31T18:48:05.431Z,89.96
2022-12-31T18:49:37.056Z,89.49
2022-12-31T18:51:12.289Z,89.51
2022-12-31T18:52:43.954Z,90.14
2022-12-31T18:54:15.785Z,90.59
2022-12-31T18:55:48.711Z,89.97
2022-12-31T18:57:20.416Z,89.82
2022-12-31T18:58:52.279Z,90.59
2022-12-31T19:00:23.961Z,90.00
2022-12-31T19:01:55.752Z,89.95
2022-12-31T19:03:29.241Z,89.40
2022-12-31T19:05:01.202Z,89.33
2022-12-31T19:06:32.871Z,89.43
2022-12-31T19:08:05.079Z,89.92
2022-12-31T19:09:45.948Z,89.96
2022-12-31T19:11:18.970Z,89.81
2022-12-31T19:12:50.758Z,89.67
2022-12-31T19:14:24.297Z,89.86
2022-12-31T19:15:56.058Z,89.54
2022-12-31T19:17:27.960Z,88.23
2022-12-31T19:19:06.787Z,88.43
2022-12-31T19:20:41.163Z,89.16
2022-12-31T19:22:18.705Z,89.36
2022-12-31T19:23:56.749Z,89.55
2022-12-31T19:25:31.230Z,89.57
2022-12-31T19:27:02.904Z,89.30
2022-12-31T19:28:34.657Z,89.81
2022-12-31T19:30:09.618Z,89.79
2022-12-31T19:31:41.425Z,89.62
2022-12-31T19:33:14.433Z,90.07
2022-12-31T19:34:47.569Z,90.24
2022-12-31T19:36:20.063Z,90.05
2022-12-31T19:37:52.566Z,90.05
2022-12-31T19:39:30.194Z,89.48
2022-12-31T19:41:04.831Z,89.92
2022-12-31T19:42:36.561Z,89.39
2022-12-31T19:44:12.861Z,89.75
2022-12-31T19:45:48.732Z,89.52
2022-12-31T19:47:20.528Z,90.17
2022-12-31T19:48:53.241Z,90.00
2022-12-31T19:50:27.020Z,90.30
2022-12-31T19:51:58.717Z,89.94
2022-12-31T19:53:30.424Z,90.21
2022-12-31T19:55:02.172Z,90.41
2022-12-31T19:56:33.909Z,90.18
2022-12-31T19:58:05.653Z,90.52
2022-12-31T19:59:37.348Z,89.87
2022-12-31T20:01:09.710Z,89.67
2022-12-31T20:02:41.764Z,89.86
2022-12-31T20:04:13.687Z,90.08
2022-12-31T20:05:46.873Z,90.11
2022-12-31T20:07:22.205Z,90.72
2022-12-31T20:08:58.542Z,90.08
2022-12-31T20:10:30.333Z,90.12
2022-12-31T20:12:01.998Z,90.64
2022-12-31T20:13:34.632Z,90.28
2022-12-31T20:15:07.707Z,90.04
2022-12-31T20:16:39.468Z,91.13
2022-12-31T20:18:11.163Z,90.64
2022-12-31T20:19:42.809Z,90.72
2022-12-31T20:21:19.715Z,90.21
2022-12-31T20:22:51.393Z,90.94
2022-12-31T20:24:23.045Z,91.34
2022-12-31T20:25:57.987Z,91.12
2022-12-31T20:27:29.778Z,90.89
2022-12-31T20:29:01.457Z,90.17
2022-12-31T20:30:33.173Z,91.09
2022-12-31T20:32:05.314Z,91.27
2022-12-31T20:33:36.970Z,90.52
2022-12-31T20:35:08.628Z,90.10
2022-12-31T20:36:41.704Z,90.59
2022-12-31T20:38:13.371Z,90.92
2022-12-31T20:39:45.007Z,91.89
2022-12-31T20:41:17.699Z,90.94
2022-12-31T20:42:49.366Z,90.51
2022-12-31T20:44:21.028Z,90.52
2022-12-31T20:45:52.790Z,90.46
2022-12-31T20:47:24.572Z,90.39
2022-12-31T20:48:57.165Z,90.68
2022-12-31T20:50:28.808Z,90.75
2022-12-31T20:52:03.907Z,91.04
2022-12-31T20:53:35.638Z,91.14
2022-12-31T20:55:09.586Z,90.81
2022-12-31T20:56:41.448Z,90.82
2022-12-31T20:58:13.131Z,91.28
2022-12-31T20:59:44.754Z,91.43
2022-12-31T21:01:16.837Z,91.12
2022-12-31T21:02:57.665Z,90.84
2022-12-31T21:04:36.072Z,90.97
2022-12-31T21:06:08.385Z,91.12
2022-12-31T21:07:41.473Z,90.81
2022-12-31T21:09:13.974Z,91.06
2022-12-31T21:10:47.489Z,90.96
2022-12-31T21:12:37.561Z,91.00
2022-12-31T21:14:09.482Z,90.66
2022-12-31T21:15:41.247Z,90.80
2022-12-31T21:17:13.018Z,90.96
2022-12-31T21:18:44.650Z,90.54
2022-12-31T21:20:17.336Z,90.72
2022-12-31T21:21:49.847Z,90.99
2022-12-31T21:23:22.971Z,91.89
2022-12-31T21:24:54.651Z,91.18
2022-12-31T21:26:26.391Z,91.15
2022-12-31T21:27:58.046Z,90.82
2022-12-31T21:29:34.398Z,90.80
2022-12-31T21:31:07.313Z,90.59
2022-12-31T21:32:39.202Z,90.58
2022-12-31T21:34:11.028Z,91.00
2022-12-31T21:35:46.944Z,92.13